Terminal Aerodrome Forecast
Issued by NWS

Home | Current Version | Previous Version | Text Only | Print | Product List | Glossary On
Versions: 1 2 3 4 5 6 7 8 9 10 11 12 13 14 15
000
FTUS45 KPIH 271700
TAFSUN
TAF
KSUN 271729Z 2718/2818 30006KT P6SM FEW120
     FM271900 13006KT P6SM SCT060 SCT120
     FM272100 25008KT P6SM BKN080
     FM280600 32010KT P6SM FEW080=

USA.gov is the U.S. government's official web portal to all federal, state and local government web resources and services.